Terminal Aerodrome Forecast
Issued by NWS Austin/San Antonio, TX

Home | Current Version | Previous Version | Text Only | Print | Product List | Glossary On
Versions: 1 2 3 4 5 6 7 8 9 10 11 12 13 14 15
000
FTUS44 KEWX 250500
TAFDRT
TAF
KDRT 250521Z 2506/2606 03005KT P6SM OVC040
     FM250800 11005KT P6SM SCT250
     FM251700 14015KT P6SM SCT250
     FM260200 12010KT P6SM SCT250=

USA.gov is the U.S. government's official web portal to all federal, state and local government web resources and services.